Time;durP1;ratioP1;P1;durP2;ratioP2;P2;SDS_P1;SDS_P2;PMS_P1;PMS_P2;Temp;Humidity;BMP_temperature;BMP_pressure;BME280_temperature;BME280_humidity;BME280_pressure;Samples;Min_cycle;Max_cycle;Signal;HPM_P1;HPM_P2
2023/01/30 00:02:02;;;;;;;47.10;15.02;;;;;;;-11.16;69.70;100118.13;4928639;28;20832;-60
2023/01/30 00:04:33;;;;;;;21.40;9.25;;;;;;;-11.03;69.73;100115.66;4941655;28;20060;-60
2023/01/30 00:07:03;;;;;;;85.00;20.85;;;;;;;-11.16;69.58;100052.53;4929715;28;20048;-61
2023/01/30 00:09:34;;;;;;;28.73;9.75;;;;;;;-10.68;69.06;100114.59;4932050;28;20108;-60
2023/01/30 00:12:07;;;;;;;18.95;7.13;;;;;;;-10.56;69.25;100104.41;4933485;28;20478;-60
2023/01/30 00:14:37;;;;;;;14.18;6.93;;;;;;;-10.52;68.80;100102.19;4946439;28;20079;-61
2023/01/30 00:17:08;;;;;;;17.55;7.15;;;;;;;-10.62;68.42;100104.88;4946896;28;20051;-60
2023/01/30 00:19:38;;;;;;;15.90;7.45;;;;;;;-10.78;68.82;100108.06;4947572;28;20483;-61
2023/01/30 00:22:09;;;;;;;15.52;7.60;;;;;;;-11.07;68.46;100104.47;4949090;28;20417;-61
2023/01/30 00:24:39;;;;;;;19.88;7.22;;;;;;;-11.78;68.37;100030.78;4949271;28;20052;-60
2023/01/30 00:27:11;;;;;;;13.68;6.85;;;;;;;-11.48;69.09;100109.28;4946649;28;20095;-61
2023/01/30 00:29:42;;;;;;;17.88;8.00;;;;;;;-11.40;68.82;100123.28;4933661;28;20043;-61
2023/01/30 00:32:26;;;;;;;15.73;7.60;;;;;;;-11.22;68.83;100117.72;4919403;28;20043;-61
2023/01/30 00:34:56;;;;;;;17.23;7.40;;;;;;;-10.99;69.02;100121.78;4929936;28;20040;-61
2023/01/30 00:37:27;;;;;;;121.88;31.30;;;;;;;-10.78;69.12;100112.22;4931576;28;20437;-61
2023/01/30 00:39:57;;;;;;;118.30;30.70;;;;;;;-10.78;68.79;100102.13;4934580;28;20728;-60
2023/01/30 00:48:07;;;;;;;20.52;7.10;;;;;;;-10.45;68.52;100106.84;4844612;28;20576;-61
2023/01/30 00:50:42;;;;;;;17.55;7.43;;;;;;;-10.29;68.43;100105.31;4854002;28;20050;-61
2023/01/30 00:53:14;;;;;;;17.52;6.30;;;;;;;-10.27;68.25;100099.53;4845032;28;20054;-61
2023/01/30 00:55:47;;;;;;;13.52;6.00;;;;;;;-11.02;68.55;99996.28;4857748;28;20092;-58
2023/01/30 00:58:20;;;;;;;22.55;8.20;;;;;;;-11.14;67.37;100025.75;4860499;28;20140;-58
2023/01/30 01:00:51;;;;;;;15.63;6.93;;;;;;;-10.98;68.10;100104.22;4855184;28;20057;-61
2023/01/30 01:03:22;;;;;;;19.17;9.20;;;;;;;-11.01;68.14;100104.00;4861061;28;20058;-61
2023/01/30 01:05:52;;;;;;;23.95;9.10;;;;;;;-10.94;68.07;100101.13;4859410;28;20204;-63
2023/01/30 01:08:23;;;;;;;18.50;7.78;;;;;;;-11.01;67.30;100103.13;4862039;28;20060;-62
2023/01/30 01:10:53;;;;;;;24.23;9.75;;;;;;;-10.87;67.23;100098.22;4860252;28;20049;-61
2023/01/30 01:13:26;;;;;;;28.70;9.23;;;;;;;-10.80;66.68;100103.69;4859319;28;20073;-61
2023/01/30 01:15:56;;;;;;;20.85;7.85;;;;;;;-10.69;67.26;100105.25;4861860;28;20099;-61
2023/01/30 01:18:27;;;;;;;19.77;7.18;;;;;;;-10.56;67.74;100104.41;4853222;28;20157;-61
2023/01/30 01:20:58;;;;;;;17.38;6.97;;;;;;;-10.44;68.02;100093.44;4856444;28;20075;-61
2023/01/30 01:23:28;;;;;;;17.40;7.53;;;;;;;-10.22;68.30;100097.31;4928743;28;20047;-61
2023/01/30 01:26:02;;;;;;;19.25;8.35;;;;;;;-10.00;68.08;100075.13;4930517;28;20052;-64
2023/01/30 01:28:34;;;;;;;14.52;7.15;;;;;;;-9.64;67.95;100090.78;4921614;28;20048;-62
2023/01/30 01:31:10;;;;;;;15.27;7.00;;;;;;;-9.84;67.31;100050.78;4931883;28;20074;-62
2023/01/30 01:33:41;;;;;;;20.90;8.50;;;;;;;-9.41;67.57;100071.06;4925820;28;20353;-62
2023/01/30 01:36:11;;;;;;;19.60;8.55;;;;;;;-9.21;67.43;100078.22;4928098;28;20053;-62
2023/01/30 01:39:02;;;;;;;14.95;7.07;;;;;;;-9.22;66.78;100051.16;4921274;28;20119;-64
2023/01/30 01:41:32;;;;;;;19.40;8.20;;;;;;;-9.05;66.70;100063.94;4932231;28;20063;-60
2023/01/30 01:44:07;;;;;;;18.33;7.07;;;;;;;-8.87;66.99;100064.97;4931955;28;20048;-63
2023/01/30 01:46:39;;;;;;;22.35;9.05;;;;;;;-8.68;66.88;100057.66;4931957;28;20059;-65
2023/01/30 01:49:15;;;;;;;24.08;8.60;;;;;;;-8.82;65.80;100052.59;4931814;28;20543;-62
2023/01/30 01:51:53;;;;;;;29.13;9.10;;;;;;;-8.94;65.79;100045.16;4921693;28;20043;-63
2023/01/30 01:54:30;;;;;;;22.70;7.35;;;;;;;-9.42;66.09;99991.78;4920535;28;20055;-62
2023/01/30 01:57:05;;;;;;;22.92;8.57;;;;;;;-9.36;65.87;100037.69;4928896;28;20624;-64
2023/01/30 01:59:41;;;;;;;21.58;8.93;;;;;;;-9.70;66.65;100039.88;4931665;28;20047;-62
2023/01/30 02:02:14;;;;;;;20.45;9.25;;;;;;;-9.95;67.62;100036.63;4925633;28;20057;-63
2023/01/30 02:05:05;;;;;;;20.45;9.02;;;;;;;-9.99;68.77;100026.31;4931120;28;20082;-62
2023/01/30 02:07:40;;;;;;;36.42;10.90;;;;;;;-9.79;69.75;100021.59;4920187;28;20067;-64
2023/01/30 02:10:16;;;;;;;24.67;10.82;;;;;;;-10.38;70.12;99936.38;4927993;28;20061;-62
2023/01/30 02:12:47;;;;;;;23.02;9.40;;;;;;;-9.88;70.42;100018.50;4941546;28;20066;-64
2023/01/30 02:15:20;;;;;;;21.20;9.35;;;;;;;-9.91;71.18;100003.16;4931143;28;20066;-63
2023/01/30 02:17:51;;;;;;;22.63;9.52;;;;;;;-9.34;70.62;100015.00;4928363;28;20065;-62
2023/01/30 02:20:31;;;;;;;20.65;9.60;;;;;;;-8.95;70.35;99990.25;4934986;28;20058;-62
2023/01/30 02:23:34;;;;;;;20.85;9.82;;;;;;;-8.41;69.97;99995.75;4926992;28;20400;-63
2023/01/30 02:26:50;;;;;;;24.05;10.13;;;;;;;-8.01;69.44;99981.03;4916735;28;20040;-62
2023/01/30 02:29:55;;;;;;;32.22;13.40;;;;;;;-7.64;68.71;99975.31;4925812;28;20065;-63
2023/01/30 02:32:35;;;;;;;28.75;13.18;;;;;;;-7.32;68.44;99965.94;4886001;28;20043;-63
2023/01/30 02:35:12;;;;;;;32.40;13.85;;;;;;;-7.13;67.15;99966.06;4927500;28;20101;-64
2023/01/30 02:37:55;;;;;;;31.17;13.40;;;;;;;-7.08;66.36;99962.06;4927779;28;20051;-63
2023/01/30 02:40:45;;;;;;;32.80;13.43;;;;;;;-7.01;65.91;99956.50;4927736;28;20133;-64
2023/01/30 02:43:24;;;;;;;28.95;13.45;;;;;;;-7.24;65.68;99957.91;4926571;28;20055;-64
2023/01/30 02:46:01;;;;;;;26.02;11.73;;;;;;;-7.32;65.90;99953.22;4927382;28;20060;-64
2023/01/30 02:48:40;;;;;;;25.23;12.68;;;;;;;-7.33;66.38;99946.44;4932768;28;20037;-65
2023/01/30 02:51:15;;;;;;;28.42;13.32;;;;;;;-7.12;65.93;99949.13;4933756;28;20067;-63
2023/01/30 02:53:48;;;;;;;30.73;12.90;;;;;;;-6.90;66.14;99948.50;4936526;27;20043;-63
2023/01/30 02:56:18;;;;;;;29.77;13.57;;;;;;;-6.74;65.46;99948.44;4937514;28;20055;-64
2023/01/30 02:58:53;;;;;;;32.53;14.02;;;;;;;-6.70;65.54;99937.63;4938807;28;20079;-65
2023/01/30 03:01:58;;;;;;;28.45;13.50;;;;;;;-6.60;65.08;99939.81;4927489;28;20044;-63
2023/01/30 03:05:07;;;;;;;27.75;12.93;;;;;;;-6.74;65.31;99930.66;4915093;28;20113;-65
2023/01/30 03:07:46;;;;;;;31.58;13.75;;;;;;;-6.64;65.23;99922.69;4926588;28;20050;-63
2023/01/30 03:10:28;;;;;;;29.30;12.60;;;;;;;-6.59;65.61;99911.06;4927633;28;20067;-64
2023/01/30 03:13:06;;;;;;;25.98;12.65;;;;;;;-6.29;65.70;99905.59;4927012;28;20062;-65
2023/01/30 03:15:41;;;;;;;29.02;12.95;;;;;;;-5.99;65.29;99910.31;4927009;28;20121;-64
2023/01/30 03:18:12;;;;;;;31.50;14.13;;;;;;;-5.99;64.83;99900.16;4927931;28;20056;-63
2023/01/30 03:20:45;;;;;;;24.77;11.35;;;;;;;-5.94;64.58;99903.75;4937018;28;20143;-65
2023/01/30 03:23:15;;;;;;;26.70;11.25;;;;;;;-5.96;64.65;99895.22;4937573;28;20051;-66
2023/01/30 03:25:49;;;;;;;28.08;12.02;;;;;;;-5.91;64.90;99883.53;4937947;28;20051;-64
2023/01/30 03:28:21;;;;;;;23.00;12.32;;;;;;;-6.31;65.02;99790.28;4937221;28;20055;-64
2023/01/30 03:30:52;;;;;;;20.45;10.55;;;;;;;-5.59;65.50;99891.66;4930019;28;20058;-64
2023/01/30 03:33:22;;;;;;;18.42;8.80;;;;;;;-5.60;65.20;99879.75;4936928;28;20628;-66
2023/01/30 03:35:55;;;;;;;25.00;9.20;;;;;;;-5.53;66.07;99880.06;4934113;28;20040;-66
2023/01/30 03:38:26;;;;;;;23.02;10.57;;;;;;;-5.63;65.81;99844.84;4934287;28;20055;-64
2023/01/30 03:40:56;;;;;;;26.95;10.15;;;;;;;-5.47;65.63;99867.56;4934481;28;20048;-66
2023/01/30 03:43:27;;;;;;;24.85;10.35;;;;;;;-5.62;65.43;99851.66;4934334;28;20055;-66
2023/01/30 03:45:57;;;;;;;22.92;11.25;;;;;;;-5.77;64.88;99856.97;4933927;28;20055;-64
2023/01/30 03:48:28;;;;;;;20.17;9.55;;;;;;;-5.99;65.50;99836.53;4934380;28;20085;-64
2023/01/30 03:51:01;;;;;;;15.80;7.40;;;;;;;-5.97;65.85;99853.63;4933365;28;20055;-66
2023/01/30 03:53:31;;;;;;;10.77;5.35;;;;;;;-5.95;66.50;99846.94;4928135;28;20038;-66
2023/01/30 03:56:02;;;;;;;7.72;4.70;;;;;;;-5.87;67.42;99837.03;4936401;28;20057;-65
2023/01/30 03:58:32;;;;;;;12.30;5.50;;;;;;;-5.81;67.88;99829.69;4934391;28;20047;-66
2023/01/30 04:01:03;;;;;;;11.35;4.70;;;;;;;-5.51;68.43;99829.22;4933576;28;20055;-65
2023/01/30 04:03:34;;;;;;;9.50;4.55;;;;;;;-5.30;68.46;99824.97;4932844;28;20074;-65
2023/01/30 04:06:07;;;;;;;8.13;4.10;;;;;;;-5.18;68.14;99818.63;4933857;28;20055;-64
2023/01/30 04:08:38;;;;;;;9.07;4.03;;;;;;;-5.18;68.50;99811.00;4933440;28;20703;-64
2023/01/30 04:11:08;;;;;;;8.43;3.38;;;;;;;-5.11;68.57;99812.97;4933589;28;20112;-65
2023/01/30 04:13:39;;;;;;;4.38;2.60;;;;;;;-5.01;68.60;99807.44;4933500;28;20073;-64
2023/01/30 04:16:17;;;;;;;5.93;3.00;;;;;;;-5.13;68.33;99796.75;4933357;28;20067;-66
2023/01/30 04:18:48;;;;;;;8.35;3.10;;;;;;;-5.00;67.94;99809.16;4921985;28;20059;-67
2023/01/30 04:21:21;;;;;;;6.60;2.60;;;;;;;-5.40;67.95;99731.19;4932934;28;20047;-64
2023/01/30 04:23:51;;;;;;;7.32;3.15;;;;;;;-4.87;67.71;99810.47;4936695;28;20049;-63
2023/01/30 04:26:22;;;;;;;10.95;4.15;;;;;;;-4.69;67.71;99810.31;4933947;28;21003;-64
2023/01/30 04:28:53;;;;;;;10.00;4.18;;;;;;;-4.59;67.48;99807.31;4933150;28;20173;-66
2023/01/30 04:31:23;;;;;;;14.43;5.30;;;;;;;-4.53;67.11;99807.53;4932618;28;20059;-64
2023/01/30 04:33:54;;;;;;;20.15;11.00;;;;;;;-4.86;64.12;99813.09;4931927;28;20056;-64
2023/01/30 04:36:28;;;;;;;18.20;9.07;;;;;;;-5.36;65.17;99812.00;4933153;28;20114;-66
2023/01/30 04:38:58;;;;;;;18.75;8.43;;;;;;;-5.68;65.40;99811.56;4932495;28;20047;-65
2023/01/30 04:41:29;;;;;;;14.77;6.78;;;;;;;-5.61;66.15;99816.91;4933356;28;20055;-64
2023/01/30 04:43:59;;;;;;;14.35;7.47;;;;;;;-5.48;66.11;99821.69;4933844;28;20047;-67
2023/01/30 04:46:30;;;;;;;15.38;7.07;;;;;;;-5.41;66.34;99805.84;4931768;28;20480;-64
2023/01/30 04:49:00;;;;;;;13.35;7.20;;;;;;;-5.35;66.67;99810.31;4949143;28;20049;-67
2023/01/30 04:51:33;;;;;;;13.20;6.65;;;;;;;-5.41;66.50;99805.84;4938344;28;20045;-66
2023/01/30 04:54:03;;;;;;;14.00;5.20;;;;;;;-5.57;66.50;99803.50;4933016;28;20056;-67
2023/01/30 04:56:34;;;;;;;12.55;5.13;;;;;;;-5.65;67.16;99801.50;4932608;28;20047;-65
2023/01/30 04:59:05;;;;;;;13.35;6.13;;;;;;;-5.51;67.23;99798.66;4932770;28;20048;-65
2023/01/30 05:01:37;;;;;;;15.68;6.03;;;;;;;-5.93;67.33;99737.56;4932373;28;20051;-65
2023/01/30 05:04:08;;;;;;;12.13;5.50;;;;;;;-5.57;67.12;99778.03;4930415;28;20051;-64
2023/01/30 05:06:40;;;;;;;13.25;5.10;;;;;;;-5.49;66.68;99789.38;4931936;28;20059;-65
2023/01/30 05:09:11;;;;;;;13.45;5.03;;;;;;;-5.51;66.36;99793.56;4928273;28;20068;-67
2023/01/30 05:11:41;;;;;;;12.48;5.05;;;;;;;-5.60;66.66;99798.28;4936205;28;20064;-65
2023/01/30 05:14:12;;;;;;;10.75;5.68;;;;;;;-5.63;67.21;99792.25;4934746;28;20064;-64
2023/01/30 05:16:42;;;;;;;12.38;5.43;;;;;;;-5.63;66.54;99794.81;4931601;28;20055;-64
2023/01/30 05:19:14;;;;;;;11.50;5.30;;;;;;;-5.99;66.52;99750.06;4917737;28;20055;-64
2023/01/30 05:21:46;;;;;;;11.02;5.05;;;;;;;-5.75;66.13;99798.53;4917184;28;20106;-66
2023/01/30 05:24:17;;;;;;;15.07;5.15;;;;;;;-5.77;66.27;99797.59;4916611;28;20140;-63
2023/01/30 05:26:47;;;;;;;12.75;4.90;;;;;;;-5.81;66.53;99796.59;4916193;28;20664;-66
2023/01/30 05:29:18;;;;;;;13.90;5.25;;;;;;;-5.85;66.49;99799.81;4916173;28;20458;-63
2023/01/30 05:31:48;;;;;;;8.75;4.43;;;;;;;-5.97;65.94;99797.66;4917188;28;20062;-65
2023/01/30 05:34:19;;;;;;;8.68;4.07;;;;;;;-6.05;66.26;99793.06;4916303;28;20056;-63
2023/01/30 05:36:51;;;;;;;12.80;4.65;;;;;;;-6.13;67.14;99801.22;4915560;28;20790;-67
2023/01/30 05:39:22;;;;;;;8.20;3.83;;;;;;;-6.15;67.44;99787.56;4908794;28;20573;-63
2023/01/30 05:41:52;;;;;;;8.57;4.40;;;;;;;-6.19;68.12;99790.81;4916467;28;20396;-65
2023/01/30 05:44:23;;;;;;;8.50;4.00;;;;;;;-6.15;68.72;99795.19;4916285;28;20058;-64
2023/01/30 05:46:53;;;;;;;10.85;4.95;;;;;;;-6.10;69.01;99790.31;4916428;28;20061;-65
2023/01/30 05:49:24;;;;;;;8.63;4.20;;;;;;;-6.18;69.33;99792.53;4915640;28;20055;-65
2023/01/30 05:51:56;;;;;;;12.80;4.43;;;;;;;-6.28;69.96;99775.16;4915601;28;20044;-64
2023/01/30 05:54:27;;;;;;;10.25;3.53;;;;;;;-6.12;69.96;99792.78;4915373;28;20048;-65
2023/01/30 05:56:57;;;;;;;7.20;4.57;;;;;;;-6.15;70.30;99787.56;4915513;28;20089;-65
2023/01/30 05:59:28;;;;;;;9.23;3.78;;;;;;;-6.13;70.80;99788.50;4915645;28;20061;-64
2023/01/30 06:01:59;;;;;;;7.43;3.85;;;;;;;-6.16;70.75;99784.97;4916506;28;20071;-64
2023/01/30 06:04:32;;;;;;;5.22;3.35;;;;;;;-6.15;71.18;99777.41;4915034;28;20075;-65
2023/01/30 06:07:04;;;;;;;6.65;3.40;;;;;;;-6.15;71.55;99784.16;4905368;28;20055;-64
2023/01/30 06:09:35;;;;;;;4.97;3.40;;;;;;;-6.26;71.52;99788.81;4915700;28;20064;-64
2023/01/30 06:12:07;;;;;;;7.78;3.45;;;;;;;-6.48;71.86;99783.59;4915474;28;20052;-65
2023/01/30 06:14:37;;;;;;;19.05;9.43;;;;;;;-6.92;71.24;99785.00;4915013;28;20151;-65
2023/01/30 06:17:08;;;;;;;15.10;6.55;;;;;;;-7.39;71.36;99790.50;4914943;28;20056;-64
2023/01/30 06:19:38;;;;;;;8.00;4.13;;;;;;;-7.87;72.32;99768.69;4915343;28;20582;-64
2023/01/30 06:22:10;;;;;;;13.75;3.63;;;;;;;-7.93;73.31;99788.69;4915473;28;20443;-66
2023/01/30 06:24:41;;;;;;;10.77;5.22;;;;;;;-8.08;73.84;99793.88;4910693;28;20224;-66
2023/01/30 06:27:13;;;;;;;17.65;8.82;;;;;;;-8.11;74.45;99793.69;4918073;28;20053;-63
2023/01/30 06:29:43;;;;;;;13.48;7.68;;;;;;;-8.09;74.60;99797.19;4916183;28;20060;-65
2023/01/30 06:32:14;;;;;;;7.22;4.60;;;;;;;-8.14;74.35;99788.47;4915995;28;20055;-65
2023/01/30 06:34:44;;;;;;;14.73;4.10;;;;;;;-8.25;74.39;99791.34;4915219;28;20463;-63
2023/01/30 06:37:16;;;;;;;6.93;3.95;;;;;;;-8.29;74.81;99784.38;4916079;28;20108;-63
2023/01/30 06:39:48;;;;;;;10.80;5.32;;;;;;;-8.40;75.06;99790.59;4915595;28;20067;-62
2023/01/30 06:42:18;;;;;;;12.68;5.50;;;;;;;-8.52;75.22;99800.09;4915057;28;20056;-62
2023/01/30 06:44:49;;;;;;;9.95;5.05;;;;;;;-8.65;75.30;99787.59;4914903;28;20059;-63
2023/01/30 06:47:19;;;;;;;13.13;6.85;;;;;;;-8.72;74.97;99792.31;4915666;28;20048;-64
2023/01/30 06:49:50;;;;;;;12.85;6.13;;;;;;;-8.79;75.22;99795.31;4916104;28;20908;-65
2023/01/30 06:52:22;;;;;;;12.10;6.18;;;;;;;-8.89;75.20;99798.16;4911679;28;20179;-63
2023/01/30 06:54:53;;;;;;;12.38;6.25;;;;;;;-9.13;74.98;99798.59;4915070;28;20044;-62
2023/01/30 06:57:24;;;;;;;15.55;6.45;;;;;;;-9.35;75.36;99790.63;4915647;28;20139;-62
2023/01/30 06:59:54;;;;;;;11.05;5.88;;;;;;;-9.54;75.85;99788.72;4915483;28;20084;-63
2023/01/30 07:02:24;;;;;;;12.50;5.70;;;;;;;-9.76;76.12;99791.69;4914366;28;20062;-62
2023/01/30 07:04:55;;;;;;;6.63;3.80;;;;;;;-9.83;76.25;99799.75;4916132;28;20048;-62
2023/01/30 07:07:27;;;;;;;7.07;3.88;;;;;;;-10.00;76.60;99808.88;4915476;28;20824;-62
2023/01/30 07:09:58;;;;;;;15.75;6.20;;;;;;;-10.13;76.95;99806.41;4916161;28;20044;-63
2023/01/30 07:12:37;;;;;;;21.35;8.15;;;;;;;-10.21;76.79;99811.00;4908814;28;20068;-61
2023/01/30 07:15:08;;;;;;;10.18;4.45;;;;;;;-10.22;76.77;99816.88;4918098;28;20079;-62
2023/01/30 07:17:40;;;;;;;32.05;11.07;;;;;;;-10.21;77.11;99811.00;4914686;28;20114;-62
2023/01/30 07:20:14;;;;;;;56.97;16.30;;;;;;;-10.15;77.52;99816.44;4906751;28;21891;-62
2023/01/30 07:22:51;;;;;;;30.05;8.40;;;;;;;-10.31;77.66;99814.69;4908317;28;20688;-61
2023/01/30 07:25:22;;;;;;;32.47;10.93;;;;;;;-10.40;77.96;99826.78;4900546;28;20062;-62
2023/01/30 07:27:53;;;;;;;59.33;17.60;;;;;;;-10.53;78.53;99827.72;4907845;28;20048;-61
2023/01/30 07:30:23;;;;;;;24.55;8.23;;;;;;;-10.58;78.79;99829.09;4908972;28;20122;-62
2023/01/30 07:32:54;;;;;;;20.25;5.70;;;;;;;-10.52;79.21;99821.88;4908529;28;20048;-60
2023/01/30 07:35:27;;;;;;;13.10;5.80;;;;;;;-10.58;79.17;99833.25;4907277;28;20049;-61
2023/01/30 07:38:02;;;;;;;14.77;6.03;;;;;;;-10.56;79.52;99822.47;4908033;28;20049;-62
2023/01/30 07:40:32;;;;;;;17.75;6.32;;;;;;;-10.56;79.52;99832.56;4897528;28;20056;-61
2023/01/30 07:43:04;;;;;;;18.98;7.78;;;;;;;-10.62;79.29;99831.34;4907169;28;20044;-63
2023/01/30 07:45:40;;;;;;;17.77;7.65;;;;;;;-10.81;79.59;99806.63;4906356;28;20101;-61
2023/01/30 07:48:12;;;;;;;17.50;7.25;;;;;;;-10.49;79.47;99852.34;4902921;28;21368;-61
2023/01/30 07:50:43;;;;;;;13.85;5.38;;;;;;;-10.50;79.59;99855.66;4907732;28;20056;-63
2023/01/30 07:53:17;;;;;;;8.98;3.40;;;;;;;-10.81;79.03;99799.03;4907712;28;20049;-63
2023/01/30 07:55:48;;;;;;;6.35;3.58;;;;;;;-10.63;78.67;99853.19;4906985;28;20490;-62
2023/01/30 07:58:19;;;;;;;6.50;2.95;;;;;;;-11.03;78.69;99828.03;4908112;28;20056;-62
2023/01/30 08:00:56;;;;;;;5.75;3.03;;;;;;;-10.86;78.49;99861.84;4907743;28;20102;-61
2023/01/30 08:03:27;;;;;;;6.22;2.50;;;;;;;-10.95;78.45;99857.13;4897383;28;20470;-62
2023/01/30 08:06:00;;;;;;;9.07;2.88;;;;;;;-11.04;78.91;99866.63;4906970;28;20044;-61
2023/01/30 08:08:31;;;;;;;9.35;2.72;;;;;;;-11.12;79.24;99863.63;4906494;28;20061;-61
2023/01/30 08:11:02;;;;;;;4.65;2.60;;;;;;;-11.11;79.26;99869.53;4898192;28;20713;-61
2023/01/30 08:13:32;;;;;;;4.55;2.58;;;;;;;-11.16;79.44;99870.91;4906844;28;20080;-62
2023/01/30 08:16:07;;;;;;;7.68;2.50;;;;;;;-11.16;79.70;99873.44;4905613;28;20045;-61
2023/01/30 08:18:39;;;;;;;2.95;2.35;;;;;;;-11.27;80.17;99871.91;4913353;28;20084;-62
2023/01/30 08:21:12;;;;;;;2.88;2.20;;;;;;;-11.51;80.89;99846.84;4916686;28;20059;-61
2023/01/30 08:23:45;;;;;;;4.55;2.47;;;;;;;-11.43;81.08;99860.84;4907679;28;20076;-61
2023/01/30 08:26:17;;;;;;;4.15;2.08;;;;;;;-11.51;81.77;99862.84;4917692;28;20052;-60
2023/01/30 08:28:50;;;;;;;3.63;2.55;;;;;;;-11.54;81.77;99862.63;4917779;28;20062;-61
2023/01/30 08:31:21;;;;;;;5.22;2.33;;;;;;;-11.52;82.15;99865.28;4913172;28;20132;-61
2023/01/30 08:33:51;;;;;;;7.28;3.00;;;;;;;-11.53;82.11;99869.44;4921683;28;20766;-61
2023/01/30 08:36:22;;;;;;;4.10;2.45;;;;;;;-11.58;82.12;99859.81;4919366;28;20508;-61
2023/01/30 08:38:57;;;;;;;6.05;2.70;;;;;;;-11.56;82.38;99863.31;4916410;28;20060;-61
2023/01/30 08:41:33;;;;;;;5.55;2.97;;;;;;;-11.58;82.67;99857.28;4917117;28;20067;-60
2023/01/30 08:44:08;;;;;;;3.13;2.35;;;;;;;-11.54;82.58;99857.59;4907848;28;20044;-61
2023/01/30 08:46:41;;;;;;;2.47;2.25;;;;;;;-11.44;82.90;99869.16;4916910;28;20056;-61
2023/01/30 08:49:12;;;;;;;4.18;2.40;;;;;;;-11.36;83.00;99862.06;4907082;28;20982;-60
2023/01/30 08:51:42;;;;;;;3.33;2.45;;;;;;;-11.30;82.99;99860.84;4917178;28;20064;-61
2023/01/30 08:54:17;;;;;;;4.45;2.20;;;;;;;-11.28;82.83;99863.47;4917552;28;20195;-61
2023/01/30 08:56:50;;;;;;;3.78;2.22;;;;;;;-11.37;82.66;99863.72;4916272;28;20569;-60
2023/01/30 08:59:26;;;;;;;8.52;2.30;;;;;;;-11.51;82.72;99861.97;4906209;28;20055;-61
2023/01/30 09:01:56;;;;;;;2.97;2.25;;;;;;;-11.56;83.12;99859.16;4916927;28;20056;-61
2023/01/30 09:04:27;;;;;;;7.72;2.88;;;;;;;-11.59;83.10;99860.59;4916975;28;20053;-61
2023/01/30 09:06:57;;;;;;;7.57;2.50;;;;;;;-11.59;83.46;99842.97;4915614;28;20071;-61
2023/01/30 09:09:29;;;;;;;3.17;2.45;;;;;;;-11.56;83.33;99863.31;4916224;28;20052;-61
2023/01/30 09:12:00;;;;;;;3.15;2.28;;;;;;;-11.58;83.46;99849.72;4916457;28;20053;-61
2023/01/30 09:14:31;;;;;;;6.05;2.70;;;;;;;-11.47;83.49;99852.97;4914760;28;20134;-62
2023/01/30 09:17:01;;;;;;;4.05;2.50;;;;;;;-11.43;83.57;99855.78;4920921;28;21204;-61
2023/01/30 09:19:32;;;;;;;4.18;2.50;;;;;;;-11.69;83.10;99820.47;4907488;28;20057;-60
2023/01/30 09:22:06;;;;;;;4.05;2.50;;;;;;;-11.63;83.21;99851.09;4904628;28;21456;-62
2023/01/30 09:24:38;;;;;;;4.22;3.10;;;;;;;-11.58;83.56;99859.81;4905090;28;20129;-61
2023/01/30 09:27:08;;;;;;;2.40;2.20;;;;;;;-11.60;83.48;99861.41;4905046;28;20098;-60
2023/01/30 09:29:39;;;;;;;3.10;2.40;;;;;;;-11.63;83.79;99851.09;4905773;28;20146;-62
2023/01/30 09:32:12;;;;;;;5.22;2.58;;;;;;;-11.60;83.99;99858.88;4895570;28;20087;-61
2023/01/30 09:34:43;;;;;;;3.25;2.40;;;;;;;-11.60;83.82;99858.88;4905803;28;20059;-61
2023/01/30 09:37:38;;;;;;;3.90;2.60;;;;;;;-11.84;84.02;99828.78;4904716;28;20044;-61
2023/01/30 09:40:46;;;;;;;3.10;2.45;;;;;;;-12.26;84.18;99739.59;4891692;28;20691;-61
2023/01/30 09:44:14;;;;;;;5.82;2.33;;;;;;;-11.60;84.11;99846.28;4894064;28;20055;-62
2023/01/30 09:47:03;;;;;;;4.97;2.70;;;;;;;-11.65;84.26;99847.63;4891970;28;20056;-61
2023/01/30 09:50:22;;;;;;;5.15;3.03;;;;;;;-11.45;84.73;99857.34;4894517;28;20656;-62
2023/01/30 09:52:58;;;;;;;5.03;3.13;;;;;;;-11.50;84.61;99848.59;4876695;28;20063;-61
2023/01/30 09:55:34;;;;;;;3.80;2.58;;;;;;;-12.18;84.43;99748.53;4903961;28;20137;-61
2023/01/30 09:58:05;;;;;;;3.47;2.47;;;;;;;-11.46;84.53;99855.56;4892955;28;20056;-61
2023/01/30 10:00:38;;;;;;;7.32;3.08;;;;;;;-11.66;84.64;99810.56;4903483;28;20048;-61
2023/01/30 10:03:13;;;;;;;4.55;2.63;;;;;;;-11.39;84.47;99852.66;4902721;28;20091;-62
2023/01/30 10:05:48;;;;;;;5.93;2.90;;;;;;;-11.45;84.43;99852.28;4893982;28;20142;-61
2023/01/30 10:08:38;;;;;;;3.97;2.60;;;;;;;-11.51;84.33;99856.91;4905066;28;20048;-61
2023/01/30 10:11:17;;;;;;;;;;;;;;;-11.43;84.70;99852.38;4895183;28;20059;-62
2023/01/30 10:14:05;;;;;;;5.78;2.42;;;;;;;-11.50;84.45;99848.59;4895582;28;19928;-62
2023/01/30 10:16:43;;;;;;;4.10;2.50;;;;;;;-11.87;84.37;99795.00;4893566;28;20048;-60
2023/01/30 10:19:34;;;;;;;4.55;2.70;;;;;;;-11.56;84.68;99845.66;4887342;28;20384;-61
2023/01/30 10:22:21;;;;;;;4.75;2.50;;;;;;;-11.49;84.33;99865.47;4886076;28;20053;-62
2023/01/30 10:25:04;;;;;;;4.30;2.47;;;;;;;-11.54;84.27;99856.72;4881958;28;20626;-61
2023/01/30 10:27:43;;;;;;;5.85;2.78;;;;;;;-11.73;84.36;99839.53;4886491;28;20057;-61
2023/01/30 10:30:16;;;;;;;5.55;2.92;;;;;;;-11.61;84.66;99859.63;4887018;28;20049;-61
2023/01/30 10:32:54;;;;;;;6.30;2.78;;;;;;;-11.68;84.65;99832.28;4893245;28;20049;-60
2023/01/30 10:35:30;;;;;;;3.63;2.28;;;;;;;-11.39;84.90;99857.72;4885995;28;20102;-62
2023/01/30 10:38:08;;;;;;;4.03;2.15;;;;;;;-11.53;84.17;99838.28;4896120;28;20458;-62
2023/01/30 10:40:43;;;;;;;4.05;2.33;;;;;;;-11.59;84.04;99842.97;4896816;28;20049;-63
2023/01/30 10:43:26;;;;;;;4.50;2.45;;;;;;;-11.60;83.95;99852.19;4887302;28;20058;-60
2023/01/30 10:45:59;;;;;;;;;;;;;;;-11.65;83.82;99852.66;4891134;28;20060;-60
2023/01/30 10:49:00;;;;;;;5.15;2.30;;;;;;;-11.82;83.94;99849.91;4899005;28;19935;-60
2023/01/30 10:51:45;;;;;;;2.97;2.50;;;;;;;-11.75;83.89;99846.16;4896446;28;20052;-60
2023/01/30 10:54:22;;;;;;;5.38;2.47;;;;;;;-11.82;83.79;99849.91;4890543;28;20135;-60
2023/01/30 10:57:02;;;;;;;4.55;2.38;;;;;;;-11.89;83.52;99842.75;4889362;28;20056;-60
2023/01/30 10:59:49;;;;;;;6.18;2.60;;;;;;;-12.24;83.26;99813.59;4890043;28;20079;-59
2023/01/30 11:02:27;;;;;;;4.88;2.70;;;;;;;-12.16;83.21;99842.66;4889659;28;20053;-60
2023/01/30 11:05:00;;;;;;;4.80;2.58;;;;;;;-12.79;83.31;99749.50;4874961;28;20134;-60
2023/01/30 11:07:34;;;;;;;5.38;2.63;;;;;;;-12.56;83.31;99791.28;4895146;28;20083;-59
2023/01/30 11:10:17;;;;;;;5.60;2.97;;;;;;;-12.24;83.69;99843.81;4900376;28;20048;-60
2023/01/30 11:12:50;;;;;;;4.60;2.80;;;;;;;-12.83;83.61;99745.03;4890868;28;20514;-60
2023/01/30 11:15:24;;;;;;;7.38;2.72;;;;;;;-12.26;83.84;99840.31;4898317;28;20230;-60
2023/01/30 11:18:07;;;;;;;5.78;3.60;;;;;;;-12.30;83.78;99838.38;4903002;28;20044;-60
2023/01/30 11:21:05;;;;;;;7.85;3.72;;;;;;;-12.32;84.01;99834.88;4900949;28;20546;-60
2023/01/30 11:23:41;;;;;;;13.05;6.80;;;;;;;-12.96;83.57;99734.91;4900114;28;20052;-60
2023/01/30 11:26:23;;;;;;;17.42;8.35;;;;;;;-12.81;84.05;99771.16;4901922;28;20861;-60
2023/01/30 11:29:24;;;;;;;26.42;9.32;;;;;;;-13.07;83.74;99727.50;4900183;28;20056;-60
2023/01/30 11:31:58;;;;;;;45.50;12.93;;;;;;;-12.44;83.97;99844.13;4900418;28;20128;-60
2023/01/30 11:34:30;;;;;;;68.45;16.98;;;;;;;-12.54;84.25;99841.75;4910135;28;20053;-60
2023/01/30 11:37:15;;;;;;;51.42;14.30;;;;;;;-12.69;84.56;99837.41;4908234;28;20056;-60
2023/01/30 11:39:53;;;;;;;34.90;10.02;;;;;;;-12.62;84.75;99844.63;4899562;28;20062;-60
2023/01/30 11:42:32;;;;;;;53.90;15.18;;;;;;;-12.64;84.90;99853.69;4900047;28;20102;-60
2023/01/30 11:45:04;;;;;;;53.65;16.20;;;;;;;-12.67;85.06;99845.94;4900698;28;20059;-59
2023/01/30 11:47:55;;;;;;;69.47;20.27;;;;;;;-12.70;85.21;99853.28;4900202;28;20344;-59
2023/01/30 11:50:40;;;;;;;33.50;11.30;;;;;;;-12.69;85.62;99852.50;4900101;28;20383;-60
2023/01/30 11:53:29;;;;;;;14.75;6.78;;;;;;;-12.69;85.31;99852.50;4899851;28;20113;-59
2023/01/30 11:56:05;;;;;;;16.35;6.38;;;;;;;-13.26;86.14;99749.63;4899195;28;20099;-59
2023/01/30 11:58:45;;;;;;;24.42;9.77;;;;;;;-12.57;86.26;99847.44;4900494;28;20158;-59
2023/01/30 12:01:17;;;;;;;32.60;11.32;;;;;;;-12.53;86.03;99851.03;4900466;28;20056;-60
2023/01/30 12:03:56;;;;;;;35.75;11.63;;;;;;;-12.46;85.86;99850.69;4910791;28;20737;-59